Juan_de_la_cosa — ECJE — position and weather

sailwx.info

Track history (hours):
 
Tides and Currents Weather Stations Pressure Air Temp Water Temp Dewpoint Dewpoint Depression Visibility Wind Speed Wind Dir Waves Ship Positions

Juan_de_la_cosa

Last reported at 2017-Feb-21 22:25 UTC. Time now 2017-Mar-01 18:01 UTC.
Position N 40°06' W 027°42'.

Length 75 m.

Type: SAR. MMSI: 224612000.

Date/timePositionNaut miles runAvg speedWind from/ knotsBaromVisibWave heightAir tempDewpointWater temp
2017-Feb-21 22:25N 40°06' W 027°42'5 5.8
2017-Feb-21 21:33N 40°02' W 027°46'6 6.0
2017-Feb-21 20:33N 39°58' W 027°51'6 6.2
2017-Feb-21 19:33N 39°53' W 027°57'6 6.2
2017-Feb-21 18:34N 39°49' W 028°02'2 2.1
2017-Feb-21 17:29N 39°47' W 028°04'2 2.3
2017-Feb-21 16:33N 39°46' W 028°07'4 4.3
2017-Feb-21 15:33N 39°43' W 028°11'6 5.8
2017-Feb-21 14:33N 39°39' W 028°16'6 5.9
2017-Feb-21 13:33N 39°34' W 028°21'6 6.2
2017-Feb-21 12:33N 39°30' W 028°26'6 5.9
2017-Feb-21 11:33N 39°25' W 028°31'4 3.8
2017-Feb-21 10:33N 39°23' W 028°35'0 0.3
2017-Feb-21 09:34N 39°23' W 028°35'4 4.1
2017-Feb-21 08:33N 39°22' W 028°40'6 6.2
2017-Feb-21 07:33N 39°20' W 028°48'6 6.4
2017-Feb-21 06:33N 39°17' W 028°56'7 6.6
2017-Feb-21 05:33N 39°15' W 029°04'6 6.3
2017-Feb-21 04:33N 39°12' W 029°11'6 6.1
2017-Feb-21 03:33N 39°10' W 029°18'6 6.0
2017-Feb-21 02:33N 39°08' W 029°26'6 6.1
2017-Feb-21 01:33N 39°06' W 029°33'6 5.9
2017-Feb-21 00:33N 39°05' W 029°40'6 5.9
2017-Feb-20 23:33N 39°03' W 029°48'6 5.8
2017-Feb-20 22:33N 39°01' W 029°55'6 5.8
2017-Feb-20 21:33N 38°59' W 030°02'6 6.0
2017-Feb-20 20:33N 38°57' W 030°09'6 5.9
2017-Feb-20 19:33N 38°55' W 030°16'6 6.0
2017-Feb-20 18:32N 38°52' W 030°23'6 6.0
2017-Feb-20 17:33N 38°50' W 030°30'6 5.9
2017-Feb-20 16:33N 38°47' W 030°37'6 5.9
2017-Feb-20 15:31N 38°45' W 030°44'6 6.0
2017-Feb-20 14:34N 38°42' W 030°51'6 5.8
2017-Feb-20 13:33N 38°41' W 030°58'6 5.7
2017-Feb-20 12:33N 38°39' W 031°05'6 5.6
2017-Feb-20 11:32N 38°37' W 031°12'6 5.7
2017-Feb-20 10:33N 38°36' W 031°19'6 5.7
2017-Feb-20 09:34N 38°34' W 031°26'6 5.5
2017-Feb-20 08:32N 38°33' W 031°33'6 6.3
2017-Feb-20 07:33N 38°31' W 031°40'7 6.4
2017-Feb-20 06:32N 38°28' W 031°48'6 6.4
2017-Feb-20 05:33N 38°26' W 031°56'6 6.3
2017-Feb-20 04:33N 38°24' W 032°03'29 5.7
2017-Feb-19 23:31N 38°16' W 032°39'6 5.8
2017-Feb-19 22:28N 38°14' W 032°46'8 5.8
2017-Feb-19 21:08N 38°12' W 032°55'3 5.8
2017-Feb-19 20:33N 38°10' W 032°59'12 5.9
2017-Feb-19 18:32N 38°05' W 033°13'7 6.0
2017-Feb-19 17:20N 38°02' W 033°21'7 6.0
2017-Feb-19 16:11N 37°59' W 033°29'4 6.1
2017-Feb-19 15:32N 37°57' W 033°33'  
Track history (hours):
 
Tides and Currents Weather Stations Pressure Air Temp Water Temp Dewpoint Dewpoint Depression Visibility Wind Speed Wind Dir Waves Ship Positions

Juan_de_la_cosa

Last reported at 2017-Feb-21 22:25 UTC. Time now 2017-Mar-01 18:01 UTC.
Position N 40°06' W 027°42'.

Length 75 m.

Type: SAR. MMSI: 224612000.

Date/timePositionNaut miles runAvg speedWind from/ knotsBaromVisibWave heightAir tempDewpointWater temp
2017-Feb-21 22:25N 40°06' W 027°42'5 5.8
2017-Feb-21 21:33N 40°02' W 027°46'6 6.0
2017-Feb-21 20:33N 39°58' W 027°51'6 6.2
2017-Feb-21 19:33N 39°53' W 027°57'6 6.2
2017-Feb-21 18:34N 39°49' W 028°02'2 2.1
2017-Feb-21 17:29N 39°47' W 028°04'2 2.3
2017-Feb-21 16:33N 39°46' W 028°07'4 4.3
2017-Feb-21 15:33N 39°43' W 028°11'6 5.8
2017-Feb-21 14:33N 39°39' W 028°16'6 5.9
2017-Feb-21 13:33N 39°34' W 028°21'6 6.2
2017-Feb-21 12:33N 39°30' W 028°26'6 5.9
2017-Feb-21 11:33N 39°25' W 028°31'4 3.8
2017-Feb-21 10:33N 39°23' W 028°35'0 0.3
2017-Feb-21 09:34N 39°23' W 028°35'4 4.1
2017-Feb-21 08:33N 39°22' W 028°40'6 6.2
2017-Feb-21 07:33N 39°20' W 028°48'6 6.4
2017-Feb-21 06:33N 39°17' W 028°56'7 6.6
2017-Feb-21 05:33N 39°15' W 029°04'6 6.3
2017-Feb-21 04:33N 39°12' W 029°11'6 6.1
2017-Feb-21 03:33N 39°10' W 029°18'6 6.0
2017-Feb-21 02:33N 39°08' W 029°26'6 6.1
2017-Feb-21 01:33N 39°06' W 029°33'6 5.9
2017-Feb-21 00:33N 39°05' W 029°40'6 5.9
2017-Feb-20 23:33N 39°03' W 029°48'6 5.8
2017-Feb-20 22:33N 39°01' W 029°55'6 5.8
2017-Feb-20 21:33N 38°59' W 030°02'6 6.0
2017-Feb-20 20:33N 38°57' W 030°09'6 5.9
2017-Feb-20 19:33N 38°55' W 030°16'6 6.0
2017-Feb-20 18:32N 38°52' W 030°23'6 6.0
2017-Feb-20 17:33N 38°50' W 030°30'6 5.9
2017-Feb-20 16:33N 38°47' W 030°37'6 5.9
2017-Feb-20 15:31N 38°45' W 030°44'6 6.0
2017-Feb-20 14:34N 38°42' W 030°51'6 5.8
2017-Feb-20 13:33N 38°41' W 030°58'6 5.7
2017-Feb-20 12:33N 38°39' W 031°05'6 5.6
2017-Feb-20 11:32N 38°37' W 031°12'6 5.7
2017-Feb-20 10:33N 38°36' W 031°19'6 5.7
2017-Feb-20 09:34N 38°34' W 031°26'6 5.5
2017-Feb-20 08:32N 38°33' W 031°33'6 6.3
2017-Feb-20 07:33N 38°31' W 031°40'7 6.4
2017-Feb-20 06:32N 38°28' W 031°48'6 6.4
2017-Feb-20 05:33N 38°26' W 031°56'6 6.3
2017-Feb-20 04:33N 38°24' W 032°03'29 5.7
2017-Feb-19 23:31N 38°16' W 032°39'6 5.8
2017-Feb-19 22:28N 38°14' W 032°46'8 5.8
2017-Feb-19 21:08N 38°12' W 032°55'3 5.8
2017-Feb-19 20:33N 38°10' W 032°59'12 5.9
2017-Feb-19 18:32N 38°05' W 033°13'7 6.0
2017-Feb-19 17:20N 38°02' W 033°21'7 6.0
2017-Feb-19 16:11N 37°59' W 033°29'4 6.1
2017-Feb-19 15:32N 37°57' W 033°33'  

Dump ship's entire track history